createdAt,value
2022-09-06T00:00:10.691Z,19.50
2022-09-06T00:02:37.414Z,19.50
2022-09-06T00:05:05.503Z,19.40
2022-09-06T00:07:32.815Z,19.40
2022-09-06T00:09:59.516Z,19.40
2022-09-06T00:12:26.580Z,19.30
2022-09-06T00:14:53.477Z,19.20
2022-09-06T00:17:20.687Z,19.30
2022-09-06T00:19:47.535Z,19.30
2022-09-06T00:22:14.266Z,19.30
2022-09-06T00:24:41.034Z,19.30
2022-09-06T00:27:08.705Z,19.30
2022-09-06T00:29:36.183Z,19.40
2022-09-06T00:32:03.363Z,19.30
2022-09-06T00:34:30.033Z,19.40
2022-09-06T00:36:56.817Z,19.40
2022-09-06T00:39:23.680Z,19.40
2022-09-06T00:41:50.951Z,19.30
2022-09-06T00:44:17.620Z,19.40
2022-09-06T00:46:47.705Z,19.30
2022-09-06T00:49:24.293Z,19.30
2022-09-06T00:51:59.106Z,19.30
2022-09-06T00:54:26.351Z,19.20
2022-09-06T00:56:54.429Z,19.20
2022-09-06T00:59:21.378Z,19.20
2022-09-06T01:01:48.543Z,19.10
2022-09-06T01:04:15.424Z,19.00
2022-09-06T01:07:30.306Z,19.00
2022-09-06T01:10:35.873Z,18.90
2022-09-06T01:13:02.504Z,18.80
2022-09-06T01:15:47.578Z,18.70
2022-09-06T01:18:20.227Z,18.70
2022-09-06T01:21:06.026Z,18.60
2022-09-06T01:23:51.242Z,18.50
2022-09-06T01:26:42.814Z,18.40
2022-09-06T01:29:36.143Z,18.40
2022-09-06T01:32:19.839Z,18.30
2022-09-06T01:34:53.803Z,18.20
2022-09-06T01:37:22.877Z,18.20
2022-09-06T01:39:49.587Z,18.10
2022-09-06T01:42:18.782Z,18.10
2022-09-06T01:44:57.721Z,18.00
2022-09-06T01:47:46.236Z,18.00
2022-09-06T01:50:25.336Z,17.90
2022-09-06T01:53:10.515Z,17.90
2022-09-06T01:56:07.366Z,17.80
2022-09-06T01:58:41.760Z,17.70
2022-09-06T02:01:21.245Z,17.70
2022-09-06T02:03:58.944Z,17.70
2022-09-06T02:06:32.687Z,17.60
2022-09-06T02:09:14.985Z,17.60
2022-09-06T02:11:50.805Z,17.60
2022-09-06T02:14:36.746Z,17.60
2022-09-06T02:17:05.643Z,17.50
2022-09-06T02:20:06.231Z,17.50
2022-09-06T02:22:37.795Z,17.50
2022-09-06T02:25:09.084Z,17.40
2022-09-06T02:27:36.118Z,17.40
2022-09-06T02:30:03.169Z,17.40
2022-09-06T02:32:32.633Z,17.30
2022-09-06T02:34:59.541Z,17.30
2022-09-06T02:37:27.368Z,17.30
2022-09-06T02:39:57.238Z,17.30
2022-09-06T02:42:24.751Z,17.30
2022-09-06T02:44:51.428Z,17.30
2022-09-06T02:47:18.423Z,17.30
2022-09-06T02:49:45.111Z,17.30
2022-09-06T02:52:11.975Z,17.30
2022-09-06T02:54:38.707Z,17.30
2022-09-06T02:57:05.453Z,17.30
2022-09-06T02:59:32.491Z,17.30
2022-09-06T03:01:59.686Z,17.20
2022-09-06T03:04:26.569Z,17.20
2022-09-06T03:06:53.252Z,17.20
2022-09-06T03:09:19.916Z,17.20
2022-09-06T03:11:46.599Z,17.20
2022-09-06T03:14:13.333Z,17.20
2022-09-06T03:16:40.026Z,17.20
2022-09-06T03:19:06.751Z,17.10
2022-09-06T03:21:33.383Z,17.10
2022-09-06T03:24:00.092Z,17.20
2022-09-06T03:26:27.846Z,17.20
2022-09-06T03:28:54.587Z,17.10
2022-09-06T03:31:21.411Z,17.10
2022-09-06T03:33:48.809Z,17.20
2022-09-06T03:36:15.856Z,17.20
2022-09-06T03:38:42.571Z,17.20
2022-09-06T03:41:09.272Z,17.20
2022-09-06T03:43:36.028Z,17.20
2022-09-06T03:46:02.918Z,17.20
2022-09-06T03:48:30.147Z,17.20
2022-09-06T03:50:58.765Z,17.20
2022-09-06T03:53:26.702Z,17.30
2022-09-06T03:55:54.770Z,17.30
2022-09-06T03:58:23.127Z,17.30
2022-09-06T04:00:59.227Z,17.30
2022-09-06T04:03:25.954Z,17.30
2022-09-06T04:05:52.622Z,17.30
2022-09-06T04:08:19.285Z,17.30
2022-09-06T04:10:49.117Z,17.30
2022-09-06T04:13:15.759Z,17.40
2022-09-06T04:15:46.781Z,17.30
2022-09-06T04:18:14.481Z,17.30
2022-09-06T04:20:41.546Z,17.30
2022-09-06T04:23:08.721Z,17.30
2022-09-06T04:25:35.511Z,17.30
2022-09-06T04:28:02.518Z,17.30
2022-09-06T04:30:29.457Z,17.40
2022-09-06T04:32:56.094Z,17.30
2022-09-06T04:35:22.844Z,17.30
2022-09-06T04:37:49.489Z,17.30
2022-09-06T04:40:16.332Z,17.40
2022-09-06T04:42:45.315Z,17.30
2022-09-06T04:45:12.074Z,17.40
2022-09-06T04:47:38.756Z,17.40
2022-09-06T04:50:05.756Z,17.40
2022-09-06T04:52:32.413Z,17.40
2022-09-06T04:54:59.034Z,17.50
2022-09-06T04:57:25.694Z,17.50
2022-09-06T04:59:52.472Z,17.50
2022-09-06T05:02:19.193Z,17.50
2022-09-06T05:04:45.961Z,17.50
2022-09-06T05:07:13.223Z,17.50
2022-09-06T05:09:39.942Z,17.50
2022-09-06T05:12:07.001Z,17.50
2022-09-06T05:14:33.760Z,17.50
2022-09-06T05:17:00.419Z,17.50
2022-09-06T05:19:27.248Z,17.50
2022-09-06T05:21:53.948Z,17.50
2022-09-06T05:24:20.601Z,17.40
2022-09-06T05:26:47.226Z,17.50
2022-09-06T05:29:14.016Z,17.50
2022-09-06T05:31:40.702Z,17.50
2022-09-06T05:34:10.509Z,17.50
2022-09-06T05:36:38.671Z,17.60
2022-09-06T05:39:05.356Z,17.60
2022-09-06T05:41:32.845Z,17.60
2022-09-06T05:44:00.071Z,17.70
2022-09-06T05:46:26.728Z,17.70
2022-09-06T05:49:07.825Z,17.70
2022-09-06T05:51:34.619Z,17.80
2022-09-06T05:54:01.358Z,17.80
2022-09-06T05:56:28.005Z,17.80
2022-09-06T05:58:54.715Z,17.90
2022-09-06T06:01:27.298Z,17.90
2022-09-06T06:03:57.205Z,18.00
2022-09-06T06:06:25.336Z,18.00
2022-09-06T06:08:52.100Z,18.10
2022-09-06T06:11:19.038Z,18.10
2022-09-06T06:13:45.772Z,18.10
2022-09-06T06:16:15.161Z,18.20
2022-09-06T06:18:42.525Z,18.20
2022-09-06T06:21:21.714Z,18.30
2022-09-06T06:23:54.239Z,18.30
2022-09-06T06:26:21.473Z,18.40
2022-09-06T06:28:48.935Z,18.60
2022-09-06T06:31:16.001Z,18.60
2022-09-06T06:33:43.339Z,18.80
2022-09-06T06:36:15.536Z,18.90
2022-09-06T06:38:45.639Z,19.00
2022-09-06T06:41:14.678Z,19.00
2022-09-06T06:43:41.796Z,19.10
2022-09-06T06:46:14.952Z,19.10
2022-09-06T06:48:43.602Z,19.00
2022-09-06T06:51:12.069Z,19.00
2022-09-06T06:53:38.905Z,19.00
2022-09-06T06:56:19.852Z,19.00
2022-09-06T06:58:48.775Z,19.00
2022-09-06T07:01:20.577Z,19.10
2022-09-06T07:03:47.863Z,19.20
2022-09-06T07:06:14.950Z,19.30
2022-09-06T07:08:42.582Z,19.30
2022-09-06T07:11:14.740Z,19.50
2022-09-06T07:13:41.550Z,19.60
2022-09-06T07:16:12.172Z,19.70
2022-09-06T07:18:42.344Z,19.70
2022-09-06T07:26:31.635Z,20.00
2022-09-06T07:29:03.361Z,20.10
2022-09-06T07:34:19.197Z,20.20
2022-09-06T07:36:45.914Z,20.20
2022-09-06T07:39:12.626Z,20.30
2022-09-06T07:41:39.342Z,20.40
2022-09-06T07:44:06.019Z,20.40
2022-09-06T07:46:33.161Z,20.50
2022-09-06T07:48:59.978Z,20.60
2022-09-06T07:51:26.650Z,20.60
2022-09-06T07:54:12.735Z,20.70
2022-09-06T07:56:39.880Z,20.70
2022-09-06T07:59:06.907Z,20.80
2022-09-06T08:01:35.793Z,20.90
2022-09-06T08:04:15.512Z,21.10
2022-09-06T08:09:31.252Z,21.20
2022-09-06T08:11:58.065Z,21.20
2022-09-06T08:14:24.928Z,21.20
2022-09-06T08:16:51.640Z,21.20
2022-09-06T08:19:18.489Z,21.40
2022-09-06T08:21:45.297Z,21.60
2022-09-06T08:24:11.959Z,21.80
2022-09-06T08:26:40.601Z,21.90
2022-09-06T08:29:09.017Z,21.90
2022-09-06T08:31:44.212Z,22.00
2022-09-06T08:34:15.032Z,22.00
2022-09-06T08:36:42.989Z,22.00
2022-09-06T08:39:10.499Z,22.00
2022-09-06T08:41:52.015Z,22.20
2022-09-06T08:44:58.607Z,22.30
2022-09-06T08:47:25.982Z,22.40
2022-09-06T08:50:01.228Z,22.50
2022-09-06T08:52:49.448Z,22.60
2022-09-06T08:55:41.747Z,22.80
2022-09-06T08:58:25.175Z,22.90
2022-09-06T09:00:58.626Z,23.20
2022-09-06T09:03:36.574Z,23.30
2022-09-06T09:06:05.952Z,23.20
2022-09-06T09:08:52.853Z,23.20
2022-09-06T09:11:22.528Z,23.10
2022-09-06T09:14:15.742Z,23.20
2022-09-06T09:16:43.082Z,23.20
2022-09-06T09:19:09.822Z,23.30
2022-09-06T09:21:38.985Z,23.30
2022-09-06T09:24:08.879Z,23.30
2022-09-06T09:26:41.708Z,23.30
2022-09-06T09:29:13.591Z,23.20
2022-09-06T09:31:53.379Z,23.20
2022-09-06T09:34:33.216Z,23.20
2022-09-06T09:40:00.436Z,23.20
2022-09-06T09:42:35.488Z,23.20
2022-09-06T09:45:18.096Z,23.30
2022-09-06T09:47:44.719Z,23.60
2022-09-06T09:50:30.079Z,24.00
2022-09-06T09:53:11.418Z,24.40
2022-09-06T09:55:38.654Z,24.80
2022-09-06T09:58:07.564Z,25.00
2022-09-06T10:00:39.941Z,25.10
2022-09-06T10:03:12.860Z,25.30
2022-09-06T10:05:41.272Z,25.60
2022-09-06T10:08:12.542Z,25.80
2022-09-06T10:10:43.084Z,25.90
2022-09-06T10:13:26.683Z,26.10
2022-09-06T10:15:54.501Z,26.00
2022-09-06T10:18:31.550Z,26.10
2022-09-06T10:21:13.339Z,26.10
2022-09-06T10:26:58.881Z,26.20
2022-09-06T10:30:02.045Z,26.50
2022-09-06T10:32:49.119Z,26.60
2022-09-06T10:35:27.851Z,26.80
2022-09-06T10:38:15.587Z,27.10
2022-09-06T10:41:38.840Z,27.30
2022-09-06T10:44:23.066Z,27.40
2022-09-06T10:46:53.449Z,27.40
2022-09-06T10:49:20.267Z,27.30
2022-09-06T10:51:53.355Z,27.30
2022-09-06T10:54:23.279Z,27.40
2022-09-06T10:57:09.341Z,27.40
2022-09-06T11:00:06.074Z,27.50
2022-09-06T11:06:10.840Z,27.40
2022-09-06T11:11:35.610Z,27.50
2022-09-06T11:14:09.552Z,27.60
2022-09-06T11:16:46.372Z,27.70
2022-09-06T11:19:33.712Z,27.80
2022-09-06T11:22:28.033Z,27.90
2022-09-06T11:25:42.613Z,28.00
2022-09-06T11:28:15.267Z,28.10
2022-09-06T11:30:52.695Z,28.10
2022-09-06T11:33:35.335Z,28.30
2022-09-06T11:36:20.071Z,28.40
2022-09-06T11:39:01.103Z,28.30
2022-09-06T11:41:33.791Z,28.30
2022-09-06T11:44:00.929Z,28.30
2022-09-06T11:46:33.634Z,28.30
2022-09-06T11:49:02.387Z,28.30
2022-09-06T11:51:43.850Z,28.40
2022-09-06T11:54:20.003Z,28.30
2022-09-06T11:56:46.630Z,28.40
2022-09-06T11:59:32.105Z,28.40
2022-09-06T12:02:03.591Z,28.40
2022-09-06T12:05:01.610Z,28.50
2022-09-06T12:07:30.335Z,28.60
2022-09-06T12:10:01.282Z,28.70
2022-09-06T12:12:52.753Z,28.60
2022-09-06T12:15:45.404Z,28.60
2022-09-06T12:18:47.308Z,28.60
2022-09-06T12:21:46.122Z,28.90
2022-09-06T12:24:36.192Z,29.00
2022-09-06T12:27:22.572Z,29.00
2022-09-06T12:29:58.728Z,29.10
2022-09-06T12:32:37.355Z,29.20
2022-09-06T12:38:15.914Z,29.40
2022-09-06T12:40:48.791Z,29.10
2022-09-06T12:43:17.774Z,29.00
2022-09-06T12:45:47.508Z,29.10
2022-09-06T12:48:27.841Z,29.20
2022-09-06T12:51:07.964Z,29.20
2022-09-06T12:53:35.877Z,29.30
2022-09-06T12:56:14.298Z,29.40
2022-09-06T12:58:40.943Z,29.60
2022-09-06T13:01:18.012Z,29.40
2022-09-06T13:03:56.103Z,29.10
2022-09-06T13:06:27.167Z,28.80
2022-09-06T13:08:57.538Z,28.80
2022-09-06T13:11:29.596Z,28.80
2022-09-06T13:13:57.426Z,28.90
2022-09-06T13:16:35.262Z,29.10
2022-09-06T13:19:12.720Z,29.20
2022-09-06T13:21:42.613Z,29.20
2022-09-06T13:24:27.639Z,29.20
2022-09-06T13:26:55.547Z,29.20
2022-09-06T13:29:32.265Z,29.00
2022-09-06T13:32:09.166Z,28.70
2022-09-06T13:34:36.720Z,28.50
2022-09-06T13:37:10.128Z,28.30
2022-09-06T13:39:42.559Z,28.10
2022-09-06T13:42:32.203Z,27.90
2022-09-06T13:45:15.564Z,27.80
2022-09-06T13:47:42.542Z,27.90
2022-09-06T13:50:09.409Z,28.20
2022-09-06T13:52:36.041Z,28.40
2022-09-06T13:55:04.745Z,28.60
2022-09-06T13:57:31.618Z,28.70
2022-09-06T13:59:58.259Z,28.90
2022-09-06T14:02:25.485Z,29.00
2022-09-06T14:04:52.422Z,29.20
2022-09-06T14:07:19.874Z,29.10
2022-09-06T14:09:47.741Z,29.10
2022-09-06T14:12:14.527Z,28.90
2022-09-06T14:14:41.272Z,28.70
2022-09-06T14:17:07.997Z,28.60
2022-09-06T14:19:34.655Z,28.60
2022-09-06T14:22:02.565Z,28.70
2022-09-06T14:24:29.291Z,28.90
2022-09-06T14:26:56.088Z,29.00
2022-09-06T14:29:22.789Z,29.20
2022-09-06T14:31:49.441Z,29.30
2022-09-06T14:34:16.452Z,29.30
2022-09-06T14:36:43.254Z,29.40
2022-09-06T14:39:09.970Z,29.50
2022-09-06T14:41:36.813Z,29.50
2022-09-06T14:44:04.845Z,29.30
2022-09-06T14:46:31.875Z,29.10
2022-09-06T14:49:03.967Z,28.80
2022-09-06T14:51:31.117Z,28.60
2022-09-06T14:54:01.911Z,28.30
2022-09-06T14:56:30.690Z,28.10
2022-09-06T14:58:58.286Z,28.00
2022-09-06T15:01:28.552Z,27.90
2022-09-06T15:03:58.423Z,27.70
2022-09-06T15:06:26.585Z,27.60
2022-09-06T15:08:59.457Z,27.50
2022-09-06T15:11:42.363Z,27.70
2022-09-06T15:14:13.317Z,27.80
2022-09-06T15:16:40.132Z,27.80
2022-09-06T15:19:07.833Z,27.80
2022-09-06T15:21:34.794Z,27.80
2022-09-06T15:24:02.534Z,27.80
2022-09-06T15:26:30.711Z,27.80
2022-09-06T15:28:57.425Z,27.80
2022-09-06T15:31:24.336Z,27.90
2022-09-06T15:33:51.596Z,28.00
2022-09-06T15:36:18.533Z,28.00
2022-09-06T15:38:47.899Z,27.90
2022-09-06T15:41:20.890Z,28.00
2022-09-06T15:43:49.344Z,27.90
2022-09-06T15:46:18.761Z,27.70
2022-09-06T15:48:50.901Z,27.70
2022-09-06T15:51:19.896Z,27.50
2022-09-06T15:53:47.724Z,27.50
2022-09-06T15:56:17.220Z,27.40
2022-09-06T15:58:45.842Z,27.30
2022-09-06T16:01:21.110Z,27.30
2022-09-06T16:03:50.325Z,27.30
2022-09-06T16:08:58.613Z,27.50
2022-09-06T16:11:27.047Z,27.50
2022-09-06T16:13:55.489Z,27.60
2022-09-06T16:16:23.041Z,27.70
2022-09-06T16:18:50.478Z,27.70
2022-09-06T16:21:20.234Z,27.70
2022-09-06T16:23:55.914Z,27.70
2022-09-06T16:26:24.110Z,27.60
2022-09-06T16:28:55.061Z,27.50
2022-09-06T16:31:22.259Z,27.40
2022-09-06T16:33:50.159Z,27.30
2022-09-06T16:36:18.694Z,27.30
2022-09-06T16:38:45.673Z,27.20
2022-09-06T16:41:14.659Z,27.10
2022-09-06T16:43:41.810Z,27.10
2022-09-06T16:46:09.172Z,27.00
2022-09-06T16:48:36.033Z,26.90
2022-09-06T16:51:14.248Z,26.80
2022-09-06T16:53:43.293Z,26.80
2022-09-06T16:56:12.483Z,26.60
2022-09-06T16:58:39.527Z,26.50
2022-09-06T17:01:08.298Z,26.50
2022-09-06T17:03:39.060Z,26.40
2022-09-06T17:06:07.506Z,26.30
2022-09-06T17:08:36.354Z,26.20
2022-09-06T17:11:17.563Z,26.10
2022-09-06T17:13:46.650Z,26.10
2022-09-06T17:16:32.460Z,26.00
2022-09-06T17:19:01.214Z,26.00
2022-09-06T17:21:29.196Z,25.90
2022-09-06T17:23:58.619Z,25.90
2022-09-06T17:26:25.340Z,25.90
2022-09-06T17:28:52.031Z,25.80
2022-09-06T17:31:24.991Z,25.70
2022-09-06T17:33:53.221Z,25.70
2022-09-06T17:36:23.623Z,25.60
2022-09-06T17:38:53.557Z,25.60
2022-09-06T17:41:23.359Z,25.40
2022-09-06T17:43:51.224Z,25.30
2022-09-06T17:46:18.073Z,25.20
2022-09-06T17:48:47.813Z,25.10
2022-09-06T17:51:15.179Z,25.00
2022-09-06T17:53:43.929Z,24.90
2022-09-06T17:56:13.873Z,24.90
2022-09-06T17:58:41.010Z,24.70
2022-09-06T18:01:10.555Z,24.60
2022-09-06T18:03:39.877Z,24.50
2022-09-06T18:06:09.157Z,24.40
2022-09-06T18:08:37.166Z,24.40
2022-09-06T18:11:09.435Z,24.40
2022-09-06T18:13:36.807Z,24.40
2022-09-06T18:16:05.015Z,24.40
2022-09-06T18:18:32.616Z,24.40
2022-09-06T18:20:59.857Z,24.50
2022-09-06T18:23:28.243Z,24.50
2022-09-06T18:25:58.728Z,24.50
2022-09-06T18:28:27.888Z,24.40
2022-09-06T18:30:58.578Z,24.40
2022-09-06T18:33:25.302Z,24.30
2022-09-06T18:35:52.284Z,24.20
2022-09-06T18:38:19.254Z,24.20
2022-09-06T18:40:57.813Z,24.10
2022-09-06T18:43:29.382Z,24.00
2022-09-06T18:46:10.609Z,23.90
2022-09-06T18:48:37.939Z,23.80
2022-09-06T18:51:05.451Z,23.60
2022-09-06T18:53:33.198Z,23.60
2022-09-06T18:56:00.330Z,23.50
2022-09-06T18:58:27.349Z,23.40
2022-09-06T19:01:01.277Z,23.30
2022-09-06T19:03:28.163Z,23.20
2022-09-06T19:05:54.921Z,23.10
2022-09-06T19:08:21.705Z,23.00
2022-09-06T19:10:48.585Z,23.00
2022-09-06T19:13:33.706Z,22.90
2022-09-06T19:16:01.144Z,22.70
2022-09-06T19:19:00.036Z,22.70
2022-09-06T19:21:27.695Z,22.70
2022-09-06T19:24:03.571Z,22.60
2022-09-06T19:26:33.130Z,22.50
2022-09-06T19:29:59.910Z,22.50
2022-09-06T19:32:26.179Z,22.40
2022-09-06T19:34:52.935Z,22.30
2022-09-06T19:38:07.458Z,22.20
2022-09-06T19:40:45.215Z,22.00
2022-09-06T19:43:11.990Z,21.90
2022-09-06T19:45:39.910Z,21.80
2022-09-06T19:48:12.617Z,21.70
2022-09-06T19:50:40.242Z,21.70
2022-09-06T19:53:07.482Z,21.60
2022-09-06T19:55:35.703Z,21.50
2022-09-06T19:58:21.643Z,21.50
2022-09-06T20:00:49.336Z,21.50
2022-09-06T20:03:16.109Z,21.40
2022-09-06T20:05:57.063Z,21.40
2022-09-06T20:08:30.524Z,21.40
2022-09-06T20:10:59.576Z,21.40
2022-09-06T20:13:27.401Z,21.30
2022-09-06T20:15:54.670Z,21.30
2022-09-06T20:18:22.618Z,21.30
2022-09-06T20:20:59.234Z,21.30
2022-09-06T20:23:30.543Z,21.20
2022-09-06T20:26:01.826Z,21.20
2022-09-06T20:28:29.551Z,21.20
2022-09-06T20:31:07.502Z,21.10
2022-09-06T20:33:35.180Z,21.00
2022-09-06T20:36:04.907Z,20.90
2022-09-06T20:38:33.350Z,20.90
2022-09-06T20:41:11.458Z,20.80
2022-09-06T20:44:41.135Z,20.70
2022-09-06T20:46:52.499Z,20.60
2022-09-06T20:49:21.453Z,20.60
2022-09-06T20:51:48.172Z,20.50
2022-09-06T20:54:14.983Z,20.40
2022-09-06T20:56:42.164Z,20.30
2022-09-06T20:59:11.231Z,20.20
2022-09-06T21:01:42.031Z,20.10
2022-09-06T21:04:10.057Z,20.00
2022-09-06T21:06:38.379Z,20.00
2022-09-06T21:09:07.775Z,19.90
2022-09-06T21:11:34.859Z,19.90
2022-09-06T21:14:01.921Z,19.80
2022-09-06T21:16:30.189Z,19.80
2022-09-06T21:19:02.490Z,19.80
2022-09-06T21:21:38.775Z,19.70
2022-09-06T21:24:07.524Z,19.70
2022-09-06T21:26:34.370Z,19.70
2022-09-06T21:29:01.128Z,19.60
2022-09-06T21:31:31.278Z,19.60
2022-09-06T21:34:01.533Z,19.50
2022-09-06T21:36:34.719Z,19.50
2022-09-06T21:39:04.322Z,19.40
2022-09-06T21:41:31.775Z,19.40
2022-09-06T21:44:00.186Z,19.30
2022-09-06T21:46:32.818Z,19.20
2022-09-06T21:49:03.502Z,19.20
2022-09-06T21:51:30.952Z,19.10
2022-09-06T21:53:58.415Z,19.10
2022-09-06T21:56:25.636Z,19.00
2022-09-06T21:58:55.379Z,19.00
2022-09-06T22:01:27.981Z,19.00
2022-09-06T22:03:55.403Z,19.00
2022-09-06T22:06:24.841Z,19.00
2022-09-06T22:08:52.512Z,18.90
2022-09-06T22:11:25.202Z,18.90
2022-09-06T22:13:52.487Z,18.90
2022-09-06T22:16:21.545Z,18.90
2022-09-06T22:18:49.279Z,18.80
2022-09-06T22:21:21.135Z,18.80
2022-09-06T22:23:54.731Z,18.80
2022-09-06T22:26:22.376Z,18.70
2022-09-06T22:28:53.942Z,18.70
2022-09-06T22:31:20.953Z,18.70
2022-09-06T22:33:47.828Z,18.60
2022-09-06T22:36:14.632Z,18.60
2022-09-06T22:38:41.393Z,18.60
2022-09-06T22:41:09.268Z,18.50
2022-09-06T22:43:36.144Z,18.50
2022-09-06T22:46:07.522Z,18.50
2022-09-06T22:48:35.021Z,18.40
2022-09-06T22:51:03.605Z,18.50
2022-09-06T22:53:33.508Z,18.40
2022-09-06T22:56:01.340Z,18.50
2022-09-06T22:58:28.071Z,18.50
2022-09-06T23:00:55.214Z,18.50
2022-09-06T23:03:22.315Z,18.40
2022-09-06T23:05:49.197Z,18.40
2022-09-06T23:08:15.907Z,18.50
2022-09-06T23:10:44.319Z,18.40
2022-09-06T23:13:11.493Z,18.40
2022-09-06T23:15:46.044Z,18.40
2022-09-06T23:18:14.231Z,18.40
2022-09-06T23:20:41.038Z,18.40
2022-09-06T23:23:08.243Z,18.30
2022-09-06T23:25:39.102Z,18.30
2022-09-06T23:28:06.904Z,18.30
2022-09-06T23:30:37.352Z,18.30
2022-09-06T23:33:04.392Z,18.30
2022-09-06T23:35:31.507Z,18.20
2022-09-06T23:37:58.481Z,18.20
2022-09-06T23:40:25.234Z,18.20
2022-09-06T23:42:51.934Z,18.20
2022-09-06T23:45:18.615Z,18.10
2022-09-06T23:47:45.319Z,18.10
2022-09-06T23:50:12.023Z,18.10
2022-09-06T23:52:38.695Z,18.10
2022-09-06T23:55:06.185Z,18.10
2022-09-06T23:57:32.940Z,18.20
2022-09-06T23:59:59.623Z,18.10
